sensor_id;sensor_type;location;lat;lon;timestamp;P1;durP1;ratioP1;P2;durP2;ratioP2
2996;SDS011;1508;48.744;9.110;2022-09-20T00:00:49;7.97;;;2.60;;
2996;SDS011;1508;48.744;9.110;2022-09-20T00:03:36;4.82;;;2.60;;
2996;SDS011;1508;48.744;9.110;2022-09-20T00:06:24;7.28;;;2.70;;
2996;SDS011;1508;48.744;9.110;2022-09-20T00:09:11;9.93;;;2.93;;
2996;SDS011;1508;48.744;9.110;2022-09-20T00:11:57;6.30;;;2.60;;
2996;SDS011;1508;48.744;9.110;2022-09-20T00:14:43;7.30;;;2.65;;
2996;SDS011;1508;48.744;9.110;2022-09-20T00:17:29;7.00;;;2.60;;
2996;SDS011;1508;48.744;9.110;2022-09-20T00:20:15;6.28;;;2.72;;
2996;SDS011;1508;48.744;9.110;2022-09-20T00:23:00;8.43;;;2.80;;
2996;SDS011;1508;48.744;9.110;2022-09-20T00:25:53;7.03;;;2.83;;
2996;SDS011;1508;48.744;9.110;2022-09-20T00:28:44;5.38;;;2.22;;
2996;SDS011;1508;48.744;9.110;2022-09-20T00:31:30;6.20;;;2.30;;
2996;SDS011;1508;48.744;9.110;2022-09-20T00:34:16;9.00;;;3.00;;
2996;SDS011;1508;48.744;9.110;2022-09-20T00:37:02;5.35;;;2.45;;
2996;SDS011;1508;48.744;9.110;2022-09-20T00:39:48;5.90;;;3.03;;
2996;SDS011;1508;48.744;9.110;2022-09-20T00:42:33;7.57;;;2.35;;
2996;SDS011;1508;48.744;9.110;2022-09-20T00:45:24;8.57;;;3.40;;
2996;SDS011;1508;48.744;9.110;2022-09-20T00:48:19;5.05;;;2.67;;
2996;SDS011;1508;48.744;9.110;2022-09-20T00:51:13;4.80;;;2.47;;
2996;SDS011;1508;48.744;9.110;2022-09-20T00:54:02;6.53;;;2.70;;
2996;SDS011;1508;48.744;9.110;2022-09-20T00:56:50;6.47;;;2.53;;
2996;SDS011;1508;48.744;9.110;2022-09-20T00:59:37;5.93;;;2.33;;
2996;SDS011;1508;48.744;9.110;2022-09-20T01:02:27;6.50;;;2.60;;
2996;SDS011;1508;48.744;9.110;2022-09-20T01:05:15;7.53;;;2.72;;
2996;SDS011;1508;48.744;9.110;2022-09-20T01:08:03;5.95;;;2.60;;
2996;SDS011;1508;48.744;9.110;2022-09-20T01:10:49;5.07;;;3.10;;
2996;SDS011;1508;48.744;9.110;2022-09-20T01:13:36;4.95;;;2.50;;
2996;SDS011;1508;48.744;9.110;2022-09-20T01:16:21;10.80;;;3.20;;
2996;SDS011;1508;48.744;9.110;2022-09-20T01:19:15;9.05;;;3.00;;
2996;SDS011;1508;48.744;9.110;2022-09-20T01:22:22;5.13;;;2.47;;
2996;SDS011;1508;48.744;9.110;2022-09-20T01:28:26;6.57;;;3.20;;
2996;SDS011;1508;48.744;9.110;2022-09-20T01:31:27;8.13;;;3.00;;
2996;SDS011;1508;48.744;9.110;2022-09-20T01:34:20;9.77;;;3.20;;
2996;SDS011;1508;48.744;9.110;2022-09-20T01:43:51;6.20;;;3.40;;
2996;SDS011;1508;48.744;9.110;2022-09-20T01:46:42;4.70;;;2.40;;
2996;SDS011;1508;48.744;9.110;2022-09-20T01:49:56;7.80;;;2.80;;
2996;SDS011;1508;48.744;9.110;2022-09-20T01:52:58;8.67;;;3.40;;
2996;SDS011;1508;48.744;9.110;2022-09-20T02:05:46;6.50;;;2.40;;
2996;SDS011;1508;48.744;9.110;2022-09-20T02:15:21;5.65;;;2.60;;
2996;SDS011;1508;48.744;9.110;2022-09-20T02:21:50;4.63;;;2.20;;
2996;SDS011;1508;48.744;9.110;2022-09-20T03:08:49;9.30;;;2.90;;
2996;SDS011;1508;48.744;9.110;2022-09-20T03:15:15;6.38;;;3.10;;
2996;SDS011;1508;48.744;9.110;2022-09-20T03:18:15;5.45;;;2.80;;
2996;SDS011;1508;48.744;9.110;2022-09-20T03:21:19;4.03;;;2.60;;
2996;SDS011;1508;48.744;9.110;2022-09-20T03:24:16;7.47;;;3.00;;
2996;SDS011;1508;48.744;9.110;2022-09-20T03:30:42;8.13;;;2.70;;
2996;SDS011;1508;48.744;9.110;2022-09-20T03:37:06;4.70;;;2.75;;
2996;SDS011;1508;48.744;9.110;2022-09-20T03:40:17;6.07;;;3.00;;
2996;SDS011;1508;48.744;9.110;2022-09-20T03:46:36;7.90;;;2.20;;
2996;SDS011;1508;48.744;9.110;2022-09-20T03:55:47;4.78;;;2.35;;
2996;SDS011;1508;48.744;9.110;2022-09-20T04:02:10;6.63;;;2.92;;
2996;SDS011;1508;48.744;9.110;2022-09-20T04:05:11;8.00;;;3.03;;
2996;SDS011;1508;48.744;9.110;2022-09-20T04:13:49;6.50;;;2.53;;
2996;SDS011;1508;48.744;9.110;2022-09-20T04:19:37;7.15;;;2.85;;
2996;SDS011;1508;48.744;9.110;2022-09-20T04:22:36;8.43;;;2.45;;
2996;SDS011;1508;48.744;9.110;2022-09-20T04:25:26;5.70;;;2.50;;
2996;SDS011;1508;48.744;9.110;2022-09-20T04:28:25;6.78;;;2.90;;
2996;SDS011;1508;48.744;9.110;2022-09-20T04:31:35;7.05;;;2.40;;
2996;SDS011;1508;48.744;9.110;2022-09-20T04:34:27;4.25;;;2.35;;
2996;SDS011;1508;48.744;9.110;2022-09-20T04:37:23;6.00;;;2.60;;
2996;SDS011;1508;48.744;9.110;2022-09-20T05:14:50;5.47;;;3.00;;
2996;SDS011;1508;48.744;9.110;2022-09-20T05:30:00;11.20;;;3.30;;
2996;SDS011;1508;48.744;9.110;2022-09-20T05:36:08;8.75;;;3.53;;
2996;SDS011;1508;48.744;9.110;2022-09-20T05:38:59;5.93;;;3.80;;
2996;SDS011;1508;48.744;9.110;2022-09-20T05:45:19;8.20;;;4.50;;
2996;SDS011;1508;48.744;9.110;2022-09-20T05:54:45;11.87;;;4.10;;
2996;SDS011;1508;48.744;9.110;2022-09-20T05:58:04;5.30;;;3.58;;
2996;SDS011;1508;48.744;9.110;2022-09-20T06:01:03;9.55;;;4.70;;
2996;SDS011;1508;48.744;9.110;2022-09-20T06:10:30;6.20;;;3.90;;
2996;SDS011;1508;48.744;9.110;2022-09-20T06:20:03;11.18;;;4.30;;
2996;SDS011;1508;48.744;9.110;2022-09-20T06:22:59;9.43;;;4.40;;
2996;SDS011;1508;48.744;9.110;2022-09-20T06:25:50;7.35;;;3.75;;
2996;SDS011;1508;48.744;9.110;2022-09-20T06:28:41;8.90;;;3.70;;
2996;SDS011;1508;48.744;9.110;2022-09-20T06:31:32;9.52;;;4.50;;
2996;SDS011;1508;48.744;9.110;2022-09-20T06:34:18;8.65;;;4.10;;
2996;SDS011;1508;48.744;9.110;2022-09-20T06:43:08;8.05;;;4.45;;
2996;SDS011;1508;48.744;9.110;2022-09-20T06:45:54;7.50;;;4.40;;
2996;SDS011;1508;48.744;9.110;2022-09-20T06:48:40;7.88;;;4.43;;
2996;SDS011;1508;48.744;9.110;2022-09-20T06:51:26;8.35;;;4.05;;
2996;SDS011;1508;48.744;9.110;2022-09-20T06:54:19;8.57;;;4.10;;
2996;SDS011;1508;48.744;9.110;2022-09-20T06:57:06;6.40;;;3.70;;
2996;SDS011;1508;48.744;9.110;2022-09-20T06:59:52;8.60;;;3.97;;
2996;SDS011;1508;48.744;9.110;2022-09-20T07:02:37;9.38;;;4.20;;
2996;SDS011;1508;48.744;9.110;2022-09-20T07:05:23;6.75;;;4.00;;
2996;SDS011;1508;48.744;9.110;2022-09-20T07:08:09;8.07;;;4.60;;
2996;SDS011;1508;48.744;9.110;2022-09-20T07:10:55;8.63;;;4.03;;
2996;SDS011;1508;48.744;9.110;2022-09-20T07:13:41;10.70;;;4.93;;
2996;SDS011;1508;48.744;9.110;2022-09-20T07:16:28;8.60;;;4.10;;
2996;SDS011;1508;48.744;9.110;2022-09-20T07:19:14;12.02;;;5.53;;
2996;SDS011;1508;48.744;9.110;2022-09-20T07:21:59;11.93;;;4.50;;
2996;SDS011;1508;48.744;9.110;2022-09-20T07:24:45;12.68;;;5.35;;
2996;SDS011;1508;48.744;9.110;2022-09-20T07:27:31;11.60;;;4.90;;
2996;SDS011;1508;48.744;9.110;2022-09-20T07:30:18;12.35;;;4.53;;
2996;SDS011;1508;48.744;9.110;2022-09-20T07:33:04;8.95;;;4.57;;
2996;SDS011;1508;48.744;9.110;2022-09-20T07:35:51;11.13;;;3.60;;
2996;SDS011;1508;48.744;9.110;2022-09-20T07:38:38;8.93;;;4.10;;
2996;SDS011;1508;48.744;9.110;2022-09-20T07:41:25;11.30;;;3.90;;
2996;SDS011;1508;48.744;9.110;2022-09-20T07:44:10;7.20;;;3.30;;
2996;SDS011;1508;48.744;9.110;2022-09-20T07:46:57;8.18;;;3.50;;
2996;SDS011;1508;48.744;9.110;2022-09-20T07:49:44;11.80;;;3.80;;
2996;SDS011;1508;48.744;9.110;2022-09-20T07:52:30;10.40;;;3.20;;
2996;SDS011;1508;48.744;9.110;2022-09-20T07:55:15;12.63;;;3.30;;
2996;SDS011;1508;48.744;9.110;2022-09-20T07:58:01;9.02;;;3.35;;
2996;SDS011;1508;48.744;9.110;2022-09-20T08:00:54;9.87;;;3.10;;
2996;SDS011;1508;48.744;9.110;2022-09-20T08:03:41;9.50;;;3.10;;
2996;SDS011;1508;48.744;9.110;2022-09-20T08:06:27;9.10;;;2.72;;
2996;SDS011;1508;48.744;9.110;2022-09-20T08:09:13;9.48;;;2.97;;
2996;SDS011;1508;48.744;9.110;2022-09-20T08:11:59;7.63;;;2.22;;
2996;SDS011;1508;48.744;9.110;2022-09-20T08:14:45;16.00;;;3.05;;
2996;SDS011;1508;48.744;9.110;2022-09-20T08:17:30;10.02;;;3.03;;
2996;SDS011;1508;48.744;9.110;2022-09-20T08:20:16;5.87;;;2.70;;
2996;SDS011;1508;48.744;9.110;2022-09-20T08:23:02;8.40;;;2.40;;
2996;SDS011;1508;48.744;9.110;2022-09-20T08:25:51;9.50;;;2.60;;
2996;SDS011;1508;48.744;9.110;2022-09-20T08:28:41;9.80;;;2.88;;
2996;SDS011;1508;48.744;9.110;2022-09-20T08:31:28;10.70;;;2.92;;
2996;SDS011;1508;48.744;9.110;2022-09-20T08:34:15;5.15;;;2.13;;
2996;SDS011;1508;48.744;9.110;2022-09-20T08:37:01;6.75;;;2.33;;
2996;SDS011;1508;48.744;9.110;2022-09-20T08:39:47;5.20;;;1.90;;
2996;SDS011;1508;48.744;9.110;2022-09-20T08:42:33;3.70;;;1.90;;
2996;SDS011;1508;48.744;9.110;2022-09-20T08:45:20;8.13;;;2.20;;
2996;SDS011;1508;48.744;9.110;2022-09-20T08:48:11;9.10;;;2.40;;
2996;SDS011;1508;48.744;9.110;2022-09-20T08:51:01;8.23;;;2.70;;
2996;SDS011;1508;48.744;9.110;2022-09-20T08:53:52;7.75;;;2.15;;
2996;SDS011;1508;48.744;9.110;2022-09-20T08:56:39;8.32;;;2.50;;
2996;SDS011;1508;48.744;9.110;2022-09-20T08:59:25;7.80;;;2.28;;
2996;SDS011;1508;48.744;9.110;2022-09-20T09:02:13;9.18;;;2.25;;
2996;SDS011;1508;48.744;9.110;2022-09-20T09:05:02;6.00;;;2.50;;
2996;SDS011;1508;48.744;9.110;2022-09-20T09:08:08;10.05;;;1.95;;
2996;SDS011;1508;48.744;9.110;2022-09-20T09:11:04;7.40;;;2.78;;
2996;SDS011;1508;48.744;9.110;2022-09-20T09:13:58;6.07;;;1.98;;
2996;SDS011;1508;48.744;9.110;2022-09-20T09:16:48;7.05;;;2.05;;
2996;SDS011;1508;48.744;9.110;2022-09-20T09:19:44;7.25;;;2.20;;
2996;SDS011;1508;48.744;9.110;2022-09-20T09:22:38;8.15;;;2.25;;
2996;SDS011;1508;48.744;9.110;2022-09-20T09:25:26;8.32;;;2.20;;
2996;SDS011;1508;48.744;9.110;2022-09-20T09:28:16;7.03;;;2.40;;
2996;SDS011;1508;48.744;9.110;2022-09-20T09:34:21;9.13;;;2.30;;
2996;SDS011;1508;48.744;9.110;2022-09-20T09:37:25;8.30;;;1.85;;
2996;SDS011;1508;48.744;9.110;2022-09-20T09:40:15;5.68;;;1.73;;
2996;SDS011;1508;48.744;9.110;2022-09-20T09:43:02;6.27;;;1.90;;
2996;SDS011;1508;48.744;9.110;2022-09-20T09:45:48;6.13;;;1.80;;
2996;SDS011;1508;48.744;9.110;2022-09-20T09:48:34;5.60;;;2.15;;
2996;SDS011;1508;48.744;9.110;2022-09-20T09:51:20;6.28;;;1.95;;
2996;SDS011;1508;48.744;9.110;2022-09-20T09:54:06;8.20;;;2.00;;
2996;SDS011;1508;48.744;9.110;2022-09-20T10:00:09;10.45;;;2.38;;
2996;SDS011;1508;48.744;9.110;2022-09-20T10:02:59;7.30;;;1.80;;
2996;SDS011;1508;48.744;9.110;2022-09-20T10:09:14;6.00;;;2.00;;
2996;SDS011;1508;48.744;9.110;2022-09-20T10:31:11;5.55;;;1.70;;
2996;SDS011;1508;48.744;9.110;2022-09-20T10:37:05;5.93;;;1.90;;
2996;SDS011;1508;48.744;9.110;2022-09-20T10:40:26;7.30;;;1.70;;
2996;SDS011;1508;48.744;9.110;2022-09-20T11:01:54;4.93;;;2.03;;
2996;SDS011;1508;48.744;9.110;2022-09-20T11:16:40;6.57;;;1.75;;
2996;SDS011;1508;48.744;9.110;2022-09-20T11:22:43;6.90;;;1.73;;
2996;SDS011;1508;48.744;9.110;2022-09-20T11:28:38;5.60;;;1.73;;
2996;SDS011;1508;48.744;9.110;2022-09-20T11:31:35;6.20;;;1.40;;
2996;SDS011;1508;48.744;9.110;2022-09-20T11:34:32;5.20;;;1.40;;
2996;SDS011;1508;48.744;9.110;2022-09-20T11:37:26;5.57;;;1.58;;
2996;SDS011;1508;48.744;9.110;2022-09-20T11:43:17;5.40;;;1.70;;
2996;SDS011;1508;48.744;9.110;2022-09-20T11:46:05;5.75;;;1.30;;
2996;SDS011;1508;48.744;9.110;2022-09-20T11:48:59;5.78;;;1.80;;
2996;SDS011;1508;48.744;9.110;2022-09-20T11:58:25;7.45;;;1.63;;
2996;SDS011;1508;48.744;9.110;2022-09-20T12:01:11;4.80;;;1.40;;
2996;SDS011;1508;48.744;9.110;2022-09-20T12:03:59;8.38;;;2.03;;
2996;SDS011;1508;48.744;9.110;2022-09-20T12:07:16;5.75;;;1.65;;
2996;SDS011;1508;48.744;9.110;2022-09-20T12:10:24;8.20;;;2.20;;
2996;SDS011;1508;48.744;9.110;2022-09-20T12:13:23;6.50;;;1.50;;
2996;SDS011;1508;48.744;9.110;2022-09-20T12:16:28;9.52;;;1.80;;
2996;SDS011;1508;48.744;9.110;2022-09-20T12:22:15;5.38;;;1.50;;
2996;SDS011;1508;48.744;9.110;2022-09-20T12:25:32;4.65;;;1.70;;
2996;SDS011;1508;48.744;9.110;2022-09-20T12:28:30;3.30;;;1.90;;
2996;SDS011;1508;48.744;9.110;2022-09-20T12:39:39;5.53;;;2.20;;
2996;SDS011;1508;48.744;9.110;2022-09-20T12:42:36;6.15;;;2.40;;
2996;SDS011;1508;48.744;9.110;2022-09-20T12:45:22;4.37;;;2.10;;
2996;SDS011;1508;48.744;9.110;2022-09-20T12:48:14;5.03;;;2.00;;
2996;SDS011;1508;48.744;9.110;2022-09-20T12:51:20;5.68;;;1.70;;
2996;SDS011;1508;48.744;9.110;2022-09-20T12:54:13;5.30;;;2.10;;
2996;SDS011;1508;48.744;9.110;2022-09-20T12:57:14;4.22;;;1.70;;
2996;SDS011;1508;48.744;9.110;2022-09-20T13:00:04;4.40;;;1.63;;
2996;SDS011;1508;48.744;9.110;2022-09-20T13:05:38;4.18;;;1.80;;
2996;SDS011;1508;48.744;9.110;2022-09-20T13:08:28;5.80;;;2.00;;
2996;SDS011;1508;48.744;9.110;2022-09-20T13:11:16;6.50;;;1.80;;
2996;SDS011;1508;48.744;9.110;2022-09-20T13:17:02;4.65;;;2.10;;
2996;SDS011;1508;48.744;9.110;2022-09-20T13:19:48;6.68;;;1.88;;
2996;SDS011;1508;48.744;9.110;2022-09-20T13:22:36;4.90;;;1.90;;
2996;SDS011;1508;48.744;9.110;2022-09-20T13:25:23;7.43;;;2.20;;
2996;SDS011;1508;48.744;9.110;2022-09-20T13:28:15;3.80;;;2.00;;
2996;SDS011;1508;48.744;9.110;2022-09-20T13:34:12;4.72;;;1.90;;
2996;SDS011;1508;48.744;9.110;2022-09-20T13:37:04;3.45;;;1.70;;
2996;SDS011;1508;48.744;9.110;2022-09-20T13:39:53;2.65;;;1.75;;
2996;SDS011;1508;48.744;9.110;2022-09-20T13:42:39;4.30;;;1.90;;
2996;SDS011;1508;48.744;9.110;2022-09-20T13:45:25;7.10;;;2.10;;
2996;SDS011;1508;48.744;9.110;2022-09-20T13:48:11;3.65;;;1.70;;
2996;SDS011;1508;48.744;9.110;2022-09-20T13:50:57;7.00;;;1.70;;
2996;SDS011;1508;48.744;9.110;2022-09-20T13:53:43;4.97;;;1.40;;
2996;SDS011;1508;48.744;9.110;2022-09-20T13:56:29;5.87;;;1.50;;
2996;SDS011;1508;48.744;9.110;2022-09-20T13:59:16;5.15;;;1.70;;
2996;SDS011;1508;48.744;9.110;2022-09-20T14:02:02;6.20;;;2.00;;
2996;SDS011;1508;48.744;9.110;2022-09-20T14:04:49;3.13;;;1.80;;
2996;SDS011;1508;48.744;9.110;2022-09-20T14:07:37;3.73;;;1.40;;
2996;SDS011;1508;48.744;9.110;2022-09-20T14:13:13;8.00;;;1.80;;
2996;SDS011;1508;48.744;9.110;2022-09-20T14:16:00;4.53;;;2.15;;
2996;SDS011;1508;48.744;9.110;2022-09-20T14:18:47;7.22;;;1.98;;
2996;SDS011;1508;48.744;9.110;2022-09-20T14:21:34;5.05;;;1.83;;
2996;SDS011;1508;48.744;9.110;2022-09-20T14:24:22;4.45;;;1.70;;
2996;SDS011;1508;48.744;9.110;2022-09-20T14:30:01;5.47;;;1.50;;
2996;SDS011;1508;48.744;9.110;2022-09-20T14:32:51;5.53;;;1.80;;
2996;SDS011;1508;48.744;9.110;2022-09-20T14:35:45;5.40;;;1.88;;
2996;SDS011;1508;48.744;9.110;2022-09-20T14:38:32;6.20;;;1.60;;
2996;SDS011;1508;48.744;9.110;2022-09-20T14:41:27;3.58;;;1.40;;
2996;SDS011;1508;48.744;9.110;2022-09-20T14:44:22;2.67;;;1.30;;
2996;SDS011;1508;48.744;9.110;2022-09-20T14:47:15;4.72;;;1.83;;
2996;SDS011;1508;48.744;9.110;2022-09-20T14:50:01;3.47;;;1.52;;
2996;SDS011;1508;48.744;9.110;2022-09-20T14:52:57;4.70;;;1.40;;
2996;SDS011;1508;48.744;9.110;2022-09-20T14:55:56;2.00;;;1.30;;
2996;SDS011;1508;48.744;9.110;2022-09-20T15:04:56;3.53;;;1.50;;
2996;SDS011;1508;48.744;9.110;2022-09-20T15:07:43;4.87;;;2.00;;
2996;SDS011;1508;48.744;9.110;2022-09-20T15:10:29;4.30;;;1.98;;
2996;SDS011;1508;48.744;9.110;2022-09-20T15:13:15;3.10;;;1.70;;
2996;SDS011;1508;48.744;9.110;2022-09-20T15:16:01;2.80;;;1.60;;
2996;SDS011;1508;48.744;9.110;2022-09-20T15:18:47;4.68;;;1.60;;
2996;SDS011;1508;48.744;9.110;2022-09-20T15:21:33;2.37;;;1.40;;
2996;SDS011;1508;48.744;9.110;2022-09-20T15:24:18;2.50;;;1.20;;
2996;SDS011;1508;48.744;9.110;2022-09-20T15:27:04;2.40;;;1.20;;
2996;SDS011;1508;48.744;9.110;2022-09-20T15:29:50;2.53;;;1.10;;
2996;SDS011;1508;48.744;9.110;2022-09-20T15:32:36;2.30;;;1.23;;
2996;SDS011;1508;48.744;9.110;2022-09-20T15:35:22;1.55;;;1.20;;
2996;SDS011;1508;48.744;9.110;2022-09-20T15:38:08;3.10;;;1.30;;
2996;SDS011;1508;48.744;9.110;2022-09-20T15:40:55;2.90;;;1.33;;
2996;SDS011;1508;48.744;9.110;2022-09-20T15:43:44;5.20;;;1.30;;
2996;SDS011;1508;48.744;9.110;2022-09-20T15:46:29;2.85;;;1.30;;
2996;SDS011;1508;48.744;9.110;2022-09-20T15:49:16;2.40;;;1.20;;
2996;SDS011;1508;48.744;9.110;2022-09-20T15:52:02;2.80;;;1.30;;
2996;SDS011;1508;48.744;9.110;2022-09-20T15:54:47;2.58;;;1.25;;
2996;SDS011;1508;48.744;9.110;2022-09-20T15:57:33;3.20;;;1.90;;
2996;SDS011;1508;48.744;9.110;2022-09-20T16:00:19;2.53;;;1.40;;
2996;SDS011;1508;48.744;9.110;2022-09-20T16:03:05;2.90;;;1.52;;
2996;SDS011;1508;48.744;9.110;2022-09-20T16:06:00;2.50;;;1.30;;
2996;SDS011;1508;48.744;9.110;2022-09-20T16:08:50;2.60;;;1.40;;
2996;SDS011;1508;48.744;9.110;2022-09-20T16:11:36;3.60;;;1.60;;
2996;SDS011;1508;48.744;9.110;2022-09-20T16:14:23;3.20;;;1.90;;
2996;SDS011;1508;48.744;9.110;2022-09-20T16:17:09;4.30;;;1.52;;
2996;SDS011;1508;48.744;9.110;2022-09-20T16:19:55;3.38;;;1.90;;
2996;SDS011;1508;48.744;9.110;2022-09-20T16:22:40;3.85;;;1.75;;
2996;SDS011;1508;48.744;9.110;2022-09-20T16:25:26;4.90;;;1.70;;
2996;SDS011;1508;48.744;9.110;2022-09-20T16:28:12;3.13;;;1.67;;
2996;SDS011;1508;48.744;9.110;2022-09-20T16:30:59;5.63;;;1.60;;
2996;SDS011;1508;48.744;9.110;2022-09-20T16:33:45;4.60;;;1.50;;
2996;SDS011;1508;48.744;9.110;2022-09-20T16:36:31;3.57;;;1.57;;
2996;SDS011;1508;48.744;9.110;2022-09-20T16:39:18;5.88;;;1.90;;
2996;SDS011;1508;48.744;9.110;2022-09-20T16:42:05;4.18;;;1.40;;
2996;SDS011;1508;48.744;9.110;2022-09-20T16:44:51;3.90;;;1.60;;
2996;SDS011;1508;48.744;9.110;2022-09-20T16:47:37;4.50;;;1.98;;
2996;SDS011;1508;48.744;9.110;2022-09-20T16:50:23;3.10;;;1.70;;
2996;SDS011;1508;48.744;9.110;2022-09-20T16:53:09;4.18;;;1.50;;
2996;SDS011;1508;48.744;9.110;2022-09-20T16:55:55;2.90;;;1.58;;
2996;SDS011;1508;48.744;9.110;2022-09-20T16:58:40;3.97;;;1.80;;
2996;SDS011;1508;48.744;9.110;2022-09-20T17:01:26;2.80;;;1.50;;
2996;SDS011;1508;48.744;9.110;2022-09-20T17:04:13;3.90;;;1.60;;
2996;SDS011;1508;48.744;9.110;2022-09-20T17:06:59;3.00;;;1.63;;
2996;SDS011;1508;48.744;9.110;2022-09-20T17:09:45;3.60;;;1.77;;
2996;SDS011;1508;48.744;9.110;2022-09-20T17:12:31;3.85;;;1.85;;
2996;SDS011;1508;48.744;9.110;2022-09-20T17:15:17;3.38;;;2.10;;
2996;SDS011;1508;48.744;9.110;2022-09-20T17:18:03;4.97;;;2.20;;
2996;SDS011;1508;48.744;9.110;2022-09-20T17:20:49;6.72;;;1.90;;
2996;SDS011;1508;48.744;9.110;2022-09-20T17:23:35;5.40;;;2.30;;
2996;SDS011;1508;48.744;9.110;2022-09-20T17:26:25;2.90;;;1.60;;
2996;SDS011;1508;48.744;9.110;2022-09-20T17:29:16;2.80;;;2.07;;
2996;SDS011;1508;48.744;9.110;2022-09-20T17:32:03;4.05;;;2.05;;
2996;SDS011;1508;48.744;9.110;2022-09-20T17:34:49;4.18;;;2.28;;
2996;SDS011;1508;48.744;9.110;2022-09-20T17:37:35;5.45;;;2.13;;
2996;SDS011;1508;48.744;9.110;2022-09-20T17:40:20;6.82;;;2.15;;
2996;SDS011;1508;48.744;9.110;2022-09-20T17:43:06;5.75;;;2.30;;
2996;SDS011;1508;48.744;9.110;2022-09-20T17:45:52;3.63;;;1.88;;
2996;SDS011;1508;48.744;9.110;2022-09-20T17:48:41;4.50;;;2.10;;
2996;SDS011;1508;48.744;9.110;2022-09-20T17:51:29;8.00;;;2.40;;
2996;SDS011;1508;48.744;9.110;2022-09-20T17:54:17;4.80;;;2.30;;
2996;SDS011;1508;48.744;9.110;2022-09-20T17:57:04;6.88;;;2.15;;
2996;SDS011;1508;48.744;9.110;2022-09-20T17:59:49;6.28;;;1.98;;
2996;SDS011;1508;48.744;9.110;2022-09-20T18:02:35;6.07;;;2.20;;
2996;SDS011;1508;48.744;9.110;2022-09-20T18:05:21;5.75;;;1.85;;
2996;SDS011;1508;48.744;9.110;2022-09-20T18:08:07;5.28;;;1.80;;
2996;SDS011;1508;48.744;9.110;2022-09-20T18:10:54;3.20;;;1.90;;
2996;SDS011;1508;48.744;9.110;2022-09-20T18:13:42;4.10;;;2.10;;
2996;SDS011;1508;48.744;9.110;2022-09-20T18:16:29;4.07;;;1.88;;
2996;SDS011;1508;48.744;9.110;2022-09-20T18:19:15;4.17;;;1.90;;
2996;SDS011;1508;48.744;9.110;2022-09-20T18:22:01;5.43;;;2.10;;
2996;SDS011;1508;48.744;9.110;2022-09-20T18:24:47;3.35;;;2.15;;
2996;SDS011;1508;48.744;9.110;2022-09-20T18:27:33;5.10;;;2.60;;
2996;SDS011;1508;48.744;9.110;2022-09-20T18:30:19;6.40;;;2.55;;
2996;SDS011;1508;48.744;9.110;2022-09-20T18:33:05;8.07;;;4.40;;
2996;SDS011;1508;48.744;9.110;2022-09-20T18:35:50;9.05;;;3.30;;
2996;SDS011;1508;48.744;9.110;2022-09-20T18:38:36;5.47;;;2.83;;
2996;SDS011;1508;48.744;9.110;2022-09-20T18:41:26;6.97;;;3.10;;
2996;SDS011;1508;48.744;9.110;2022-09-20T18:44:14;4.55;;;2.72;;
2996;SDS011;1508;48.744;9.110;2022-09-20T18:47:02;3.83;;;2.90;;
2996;SDS011;1508;48.744;9.110;2022-09-20T18:49:48;8.25;;;3.40;;
2996;SDS011;1508;48.744;9.110;2022-09-20T18:52:34;4.78;;;3.00;;
2996;SDS011;1508;48.744;9.110;2022-09-20T18:55:20;5.30;;;3.10;;
2996;SDS011;1508;48.744;9.110;2022-09-20T18:58:07;5.15;;;2.65;;
2996;SDS011;1508;48.744;9.110;2022-09-20T19:01:18;4.97;;;2.90;;
2996;SDS011;1508;48.744;9.110;2022-09-20T19:04:35;5.82;;;3.40;;
2996;SDS011;1508;48.744;9.110;2022-09-20T19:10:42;6.07;;;3.70;;
2996;SDS011;1508;48.744;9.110;2022-09-20T19:13:42;6.67;;;3.63;;
2996;SDS011;1508;48.744;9.110;2022-09-20T19:16:32;5.38;;;3.00;;
2996;SDS011;1508;48.744;9.110;2022-09-20T19:19:20;8.85;;;3.38;;
2996;SDS011;1508;48.744;9.110;2022-09-20T19:28:07;5.45;;;3.30;;
2996;SDS011;1508;48.744;9.110;2022-09-20T19:30:55;5.95;;;3.40;;
2996;SDS011;1508;48.744;9.110;2022-09-20T19:33:41;7.15;;;3.58;;
2996;SDS011;1508;48.744;9.110;2022-09-20T19:36:35;8.05;;;4.22;;
2996;SDS011;1508;48.744;9.110;2022-09-20T19:46:04;5.40;;;2.80;;
2996;SDS011;1508;48.744;9.110;2022-09-20T19:49:22;5.88;;;3.40;;
2996;SDS011;1508;48.744;9.110;2022-09-20T19:52:24;8.80;;;4.43;;
2996;SDS011;1508;48.744;9.110;2022-09-20T19:55:10;7.50;;;3.53;;
2996;SDS011;1508;48.744;9.110;2022-09-20T19:57:57;6.80;;;3.55;;
2996;SDS011;1508;48.744;9.110;2022-09-20T20:00:44;4.55;;;3.00;;
2996;SDS011;1508;48.744;9.110;2022-09-20T20:03:31;6.05;;;3.10;;
2996;SDS011;1508;48.744;9.110;2022-09-20T20:06:31;8.18;;;3.90;;
2996;SDS011;1508;48.744;9.110;2022-09-20T20:21:20;7.60;;;3.70;;
2996;SDS011;1508;48.744;9.110;2022-09-20T20:27:11;7.57;;;3.47;;
2996;SDS011;1508;48.744;9.110;2022-09-20T20:29:57;7.97;;;3.65;;
2996;SDS011;1508;48.744;9.110;2022-09-20T20:32:43;7.90;;;4.30;;
2996;SDS011;1508;48.744;9.110;2022-09-20T20:35:29;10.10;;;3.80;;
2996;SDS011;1508;48.744;9.110;2022-09-20T20:38:15;7.40;;;3.83;;
2996;SDS011;1508;48.744;9.110;2022-09-20T20:41:10;7.35;;;4.05;;
2996;SDS011;1508;48.744;9.110;2022-09-20T20:43:57;5.78;;;3.60;;
2996;SDS011;1508;48.744;9.110;2022-09-20T20:46:43;4.15;;;3.40;;
2996;SDS011;1508;48.744;9.110;2022-09-20T20:49:29;8.10;;;4.10;;
2996;SDS011;1508;48.744;9.110;2022-09-20T20:52:15;7.20;;;4.10;;
2996;SDS011;1508;48.744;9.110;2022-09-20T20:55:01;6.35;;;3.42;;
2996;SDS011;1508;48.744;9.110;2022-09-20T20:57:53;8.67;;;4.40;;
2996;SDS011;1508;48.744;9.110;2022-09-20T21:00:40;5.75;;;4.10;;
2996;SDS011;1508;48.744;9.110;2022-09-20T21:03:25;8.00;;;3.50;;
2996;SDS011;1508;48.744;9.110;2022-09-20T21:06:11;6.10;;;3.83;;
2996;SDS011;1508;48.744;9.110;2022-09-20T21:08:57;7.97;;;4.38;;
2996;SDS011;1508;48.744;9.110;2022-09-20T21:11:43;7.05;;;4.00;;
2996;SDS011;1508;48.744;9.110;2022-09-20T21:14:29;7.73;;;3.80;;
2996;SDS011;1508;48.744;9.110;2022-09-20T21:17:15;5.68;;;3.80;;
2996;SDS011;1508;48.744;9.110;2022-09-20T21:20:01;5.25;;;3.55;;
2996;SDS011;1508;48.744;9.110;2022-09-20T21:22:47;8.80;;;3.75;;
2996;SDS011;1508;48.744;9.110;2022-09-20T21:25:32;7.15;;;3.70;;
2996;SDS011;1508;48.744;9.110;2022-09-20T21:28:18;5.70;;;3.88;;
2996;SDS011;1508;48.744;9.110;2022-09-20T21:31:04;7.13;;;3.70;;
2996;SDS011;1508;48.744;9.110;2022-09-20T21:33:51;8.40;;;4.18;;
2996;SDS011;1508;48.744;9.110;2022-09-20T21:36:37;10.18;;;4.40;;
2996;SDS011;1508;48.744;9.110;2022-09-20T21:39:24;6.30;;;3.95;;
2996;SDS011;1508;48.744;9.110;2022-09-20T21:42:10;9.90;;;4.90;;
2996;SDS011;1508;48.744;9.110;2022-09-20T21:44:56;7.53;;;4.32;;
2996;SDS011;1508;48.744;9.110;2022-09-20T21:47:41;6.60;;;4.43;;
2996;SDS011;1508;48.744;9.110;2022-09-20T21:50:27;8.60;;;4.68;;
2996;SDS011;1508;48.744;9.110;2022-09-20T21:53:14;5.88;;;4.20;;
2996;SDS011;1508;48.744;9.110;2022-09-20T21:56:02;7.75;;;4.20;;
2996;SDS011;1508;48.744;9.110;2022-09-20T21:58:49;6.47;;;4.20;;
2996;SDS011;1508;48.744;9.110;2022-09-20T22:01:36;8.00;;;4.40;;
2996;SDS011;1508;48.744;9.110;2022-09-20T22:04:23;6.73;;;4.00;;
2996;SDS011;1508;48.744;9.110;2022-09-20T22:07:09;5.28;;;3.33;;
2996;SDS011;1508;48.744;9.110;2022-09-20T22:09:55;5.45;;;3.20;;
2996;SDS011;1508;48.744;9.110;2022-09-20T22:12:41;7.10;;;4.13;;
2996;SDS011;1508;48.744;9.110;2022-09-20T22:15:26;9.13;;;3.67;;
2996;SDS011;1508;48.744;9.110;2022-09-20T22:18:12;7.85;;;4.28;;
2996;SDS011;1508;48.744;9.110;2022-09-20T22:21:05;7.38;;;4.30;;
2996;SDS011;1508;48.744;9.110;2022-09-20T22:24:11;5.77;;;3.70;;
2996;SDS011;1508;48.744;9.110;2022-09-20T22:26:59;7.60;;;4.18;;
2996;SDS011;1508;48.744;9.110;2022-09-20T22:29:44;8.52;;;4.50;;
2996;SDS011;1508;48.744;9.110;2022-09-20T22:32:30;6.00;;;4.50;;
2996;SDS011;1508;48.744;9.110;2022-09-20T22:35:16;6.50;;;4.43;;
2996;SDS011;1508;48.744;9.110;2022-09-20T22:38:02;9.20;;;4.07;;
2996;SDS011;1508;48.744;9.110;2022-09-20T22:40:51;6.15;;;3.90;;
2996;SDS011;1508;48.744;9.110;2022-09-20T22:43:38;6.10;;;4.10;;
2996;SDS011;1508;48.744;9.110;2022-09-20T22:46:25;9.13;;;4.40;;
2996;SDS011;1508;48.744;9.110;2022-09-20T22:49:12;8.47;;;4.30;;
2996;SDS011;1508;48.744;9.110;2022-09-20T22:51:58;5.90;;;4.00;;
2996;SDS011;1508;48.744;9.110;2022-09-20T22:54:44;8.52;;;4.63;;
2996;SDS011;1508;48.744;9.110;2022-09-20T22:57:30;7.35;;;4.20;;
2996;SDS011;1508;48.744;9.110;2022-09-20T23:00:16;6.95;;;4.15;;